Terminal Aerodrome Forecast
Issued by NWS

Home | Current Version | Previous Version | Text Only | Print | Product List | Glossary On
Versions: 1 2 3 4 5 6 7 8 9 10 11 12 13 14 15
000
FTUS42 KMLB 250500
TAFTIX
TAF
KTIX 250520Z 2506/2606 32004KT P6SM SCT045
      TEMPO 2506/2509 BKN045
     FM251400 35010KT P6SM SCT035
     FM260000 01005KT P6SM SKC
      AMD NOT SKED TIL 251100=

USA.gov is the U.S. government's official web portal to all federal, state and local government web resources and services.